Time;durP1;ratioP1;P1;durP2;ratioP2;P2;SDS_P1;SDS_P2;PMS_P1;PMS_P2;Temp;Humidity;BMP_temperature;BMP_pressure;BME280_temperature;BME280_humidity;BME280_pressure;Samples;Min_cycle;Max_cycle;Signal;HPM_P1;HPM_P2
2022/06/24 00:01:59;;;;;;;15.60;10.50;;;22.20;99.90;;;;;;5059698;28;20879;-66
2022/06/24 00:04:28;;;;;;;15.03;10.23;;;22.00;99.90;;;;;;5057815;28;20837;-66
2022/06/24 00:06:58;;;;;;;11.07;9.97;;;21.70;99.90;;;;;;5054069;28;20458;-66
2022/06/24 00:09:28;;;;;;;14.07;10.67;;;21.50;99.90;;;;;;5051193;28;20490;-67
2022/06/24 00:12:05;;;;;;;14.63;8.50;;;21.40;99.90;;;;;;5046637;28;20467;-66
2022/06/24 00:14:32;;;;;;;11.83;8.80;;;21.40;99.90;;;;;;5054453;28;20459;-65
2022/06/24 00:17:00;;;;;;;9.90;9.00;;;21.40;99.90;;;;;;5053117;28;20472;-67
2022/06/24 00:19:29;;;;;;;9.93;9.00;;;21.30;99.90;;;;;;5052217;28;20542;-65
2022/06/24 00:22:00;;;;;;;13.63;9.47;;;21.10;99.90;;;;;;5057209;28;20464;-65
2022/06/24 00:24:28;;;;;;;17.33;9.63;;;21.00;99.90;;;;;;5058642;28;20462;-66
2022/06/24 00:26:54;;;;;;;18.33;9.80;;;21.00;99.90;;;;;;5046755;28;20922;-66
2022/06/24 00:29:25;;;;;;;13.90;9.50;;;21.00;99.90;;;;;;5047248;28;20456;-66
2022/06/24 00:32:06;;;;;;;14.80;8.63;;;20.90;99.90;;;;;;5054032;28;20470;-65
2022/06/24 00:34:34;;;;;;;13.60;8.50;;;20.90;99.90;;;;;;5054746;28;20466;-66
2022/06/24 00:37:24;;;;;;;10.57;8.43;;;20.90;99.90;;;;;;5051024;28;20468;-66
2022/06/24 00:39:53;;;;;;;10.97;9.50;;;20.90;99.90;;;;;;5055305;28;20803;-65
2022/06/24 00:42:21;;;;;;;14.40;7.80;;;20.90;99.90;;;;;;5050483;28;20770;-67
2022/06/24 00:45:00;;;;;;;11.57;8.13;;;20.90;99.90;;;;;;5049569;28;20460;-66
2022/06/24 00:47:29;;;;;;;12.50;8.13;;;20.90;99.90;;;;;;5056491;28;20472;-66
2022/06/24 00:50:00;;;;;;;10.13;8.97;;;21.10;99.90;;;;;;5056726;28;20468;-65
2022/06/24 00:52:27;;;;;;;30.83;27.93;;;21.20;99.90;;;;;;5055001;28;20459;-65
2022/06/24 00:54:54;;;;;;;42.90;27.10;;;21.10;99.90;;;;;;5050122;28;20491;-65
2022/06/24 00:57:21;;;;;;;27.10;24.87;;;20.90;99.90;;;;;;5052887;28;20456;-66
2022/06/24 00:59:48;;;;;;;26.30;24.20;;;20.70;99.90;;;;;;5049634;28;20961;-65
2022/06/24 01:02:19;;;;;;;27.03;24.07;;;20.50;99.90;;;;;;5050482;28;20475;-66
2022/06/24 01:04:46;;;;;;;22.43;20.83;;;20.50;99.90;;;;;;5054274;28;20467;-65
2022/06/24 01:07:14;;;;;;;22.80;21.10;;;20.40;99.90;;;;;;5054705;28;20464;-67
2022/06/24 01:09:42;;;;;;;23.57;21.87;;;20.30;99.90;;;;;;5052444;28;20511;-66
2022/06/24 01:12:11;;;;;;;24.33;22.07;;;20.20;99.90;;;;;;5058638;28;20463;-66
2022/06/24 01:14:38;;;;;;;24.27;22.10;;;20.10;99.90;;;;;;5046666;28;20973;-66
2022/06/24 01:17:05;;;;;;;23.90;22.10;;;20.10;99.90;;;;;;5055707;28;20512;-65
2022/06/24 01:19:33;;;;;;;26.43;24.10;;;20.10;99.90;;;;;;5054952;28;20491;-66
2022/06/24 01:22:01;;;;;;;27.20;24.57;;;20.00;99.90;;;;;;5052037;28;20472;-66
2022/06/24 01:24:28;;;;;;;25.63;23.90;;;20.00;99.90;;;;;;5051032;28;20467;-66
2022/06/24 01:26:57;;;;;;;25.83;23.60;;;20.00;99.90;;;;;;5052299;28;20464;-66
2022/06/24 01:29:25;;;;;;;24.70;23.00;;;20.00;99.90;;;;;;5048107;28;20475;-66
2022/06/24 01:31:54;;;;;;;25.87;23.53;;;20.00;99.90;;;;;;5058764;28;20463;-68
2022/06/24 01:34:23;;;;;;;25.90;23.23;;;20.00;99.90;;;;;;5049952;28;20966;-66
2022/06/24 01:36:50;;;;;;;23.07;21.37;;;20.10;99.90;;;;;;5057418;28;21395;-65
2022/06/24 01:39:19;;;;;;;22.10;20.60;;;20.20;99.90;;;;;;5058408;28;20546;-67
2022/06/24 01:41:48;;;;;;;20.73;19.03;;;20.20;99.90;;;;;;5055011;28;20513;-66
2022/06/24 01:44:15;;;;;;;21.83;19.80;;;20.20;99.90;;;;;;5055447;28;20467;-65
2022/06/24 01:46:43;;;;;;;21.00;19.47;;;20.10;99.90;;;;;;5060841;28;20466;-68
2022/06/24 01:49:11;;;;;;;18.87;17.67;;;20.10;99.90;;;;;;5060649;28;20463;-66
2022/06/24 01:51:40;;;;;;;18.67;17.07;;;20.10;99.90;;;;;;5049683;28;20466;-65
2022/06/24 01:54:07;;;;;;;18.50;16.73;;;20.00;99.90;;;;;;5052976;28;20456;-66
2022/06/24 01:56:35;;;;;;;20.20;18.20;;;19.90;99.90;;;;;;5057633;28;20494;-65
2022/06/24 01:59:03;;;;;;;21.03;19.20;;;19.80;99.90;;;;;;5056506;28;20879;-67
2022/06/24 02:01:31;;;;;;;21.70;19.87;;;19.80;99.90;;;;;;5053385;28;20460;-65
2022/06/24 02:03:58;;;;;;;24.33;22.23;;;19.70;99.90;;;;;;5057338;28;20551;-65
2022/06/24 02:06:25;;;;;;;27.37;24.80;;;19.70;99.90;;;;;;5061744;28;20463;-64
2022/06/24 02:08:52;;;;;;;25.00;23.00;;;19.70;99.90;;;;;;5051222;28;20511;-66
2022/06/24 02:14:09;;;;;;;23.00;21.40;;;19.60;99.90;;;;;;5063322;28;20458;-67
2022/06/24 02:16:36;;;;;;;22.47;20.67;;;19.60;99.90;;;;;;5054438;28;20486;-66
2022/06/24 02:19:05;;;;;;;25.30;22.33;;;19.60;99.90;;;;;;5057644;28;20958;-66
2022/06/24 02:21:33;;;;;;;26.10;23.57;;;19.50;99.90;;;;;;5056950;28;20945;-66
2022/06/24 02:24:01;;;;;;;23.80;22.00;;;19.50;99.90;;;;;;5058049;28;20486;-66
2022/06/24 02:26:28;;;;;;;22.80;20.83;;;19.40;99.90;;;;;;5048554;28;20464;-65
2022/06/24 02:28:55;;;;;;;23.60;21.60;;;19.50;99.90;;;;;;5052516;28;20477;-67
2022/06/24 02:31:24;;;;;;;23.70;22.00;;;19.50;99.90;;;;;;5054353;28;20464;-67
2022/06/24 02:33:51;;;;;;;25.60;23.60;;;19.50;99.90;;;;;;5055842;28;20473;-66
2022/06/24 02:36:19;;;;;;;24.70;22.87;;;19.60;99.90;;;;;;5053975;28;20879;-65
2022/06/24 02:38:46;;;;;;;26.10;24.13;;;19.50;99.90;;;;;;5061647;28;20478;-65
2022/06/24 02:41:13;;;;;;;24.83;23.03;;;19.50;99.90;;;;;;5057125;28;20473;-66
2022/06/24 02:43:40;;;;;;;26.83;24.73;;;19.60;99.90;;;;;;5049843;28;20464;-66
2022/06/24 02:46:10;;;;;;;26.03;24.20;;;19.50;99.90;;;;;;5059271;28;20477;-66
2022/06/24 02:48:40;;;;;;;26.67;24.43;;;19.50;99.90;;;;;;5056916;28;20657;-66
2022/06/24 02:51:09;;;;;;;27.97;25.57;;;19.40;99.90;;;;;;5059871;28;20462;-66
2022/06/24 02:53:38;;;;;;;26.73;24.77;;;19.40;99.90;;;;;;5052095;28;20893;-66
2022/06/24 02:56:08;;;;;;;29.63;26.90;;;19.40;99.90;;;;;;5052489;28;20494;-66
2022/06/24 02:58:36;;;;;;;28.90;26.20;;;19.30;99.90;;;;;;5055873;28;20500;-66
2022/06/24 03:01:04;;;;;;;36.60;28.10;;;19.40;99.90;;;;;;5055943;28;20499;-66
2022/06/24 03:03:32;;;;;;;30.43;27.40;;;19.50;99.90;;;;;;5050882;28;20455;-67
2022/06/24 03:06:00;;;;;;;32.20;28.80;;;19.50;99.90;;;;;;5052633;28;20471;-66
2022/06/24 03:08:27;;;;;;;32.00;29.03;;;19.50;99.90;;;;;;5052788;28;20472;-66
2022/06/24 03:10:56;;;;;;;33.03;29.77;;;19.40;99.90;;;;;;5055884;28;20467;-66
2022/06/24 03:13:23;;;;;;;32.73;29.83;;;19.50;99.90;;;;;;5054583;28;20471;-66
2022/06/24 03:15:51;;;;;;;32.53;29.93;;;19.40;99.90;;;;;;5054541;28;21005;-67
2022/06/24 03:18:18;;;;;;;33.17;30.03;;;19.40;99.90;;;;;;5054611;28;20871;-67
2022/06/24 03:20:46;;;;;;;32.90;30.13;;;19.40;99.90;;;;;;5052364;28;20499;-66
2022/06/24 03:23:14;;;;;;;33.13;30.30;;;19.40;99.90;;;;;;5051012;28;20487;-67
2022/06/24 03:25:41;;;;;;;32.80;29.73;;;19.40;99.90;;;;;;5051146;28;20464;-66
2022/06/24 03:28:08;;;;;;;32.90;30.10;;;19.40;99.90;;;;;;5049906;28;20463;-68
2022/06/24 03:30:35;;;;;;;34.73;31.70;;;19.40;99.90;;;;;;5055369;28;20837;-67
2022/06/24 03:33:02;;;;;;;33.90;30.80;;;19.40;99.90;;;;;;5054647;28;20547;-66
2022/06/24 03:35:30;;;;;;;36.00;33.00;;;19.40;99.90;;;;;;5054345;28;20460;-68
2022/06/24 03:37:57;;;;;;;36.37;32.83;;;19.40;99.90;;;;;;5057759;28;21000;-67
2022/06/24 03:40:25;;;;;;;36.87;33.57;;;19.40;99.90;;;;;;5051091;28;20465;-66
2022/06/24 03:42:53;;;;;;;37.13;33.77;;;19.40;99.90;;;;;;5051499;28;20470;-67
2022/06/24 03:45:21;;;;;;;34.37;31.80;;;19.40;99.90;;;;;;5053254;28;20460;-68
2022/06/24 03:47:47;;;;;;;36.30;33.40;;;19.40;99.90;;;;;;5049722;28;20467;-67
2022/06/24 03:50:15;;;;;;;36.70;33.57;;;19.40;99.90;;;;;;5058600;28;20462;-66
2022/06/24 03:52:42;;;;;;;35.97;32.87;;;19.50;99.90;;;;;;5056112;28;20944;-66
2022/06/24 03:55:09;;;;;;;35.63;31.83;;;19.50;99.90;;;;;;5053159;28;20456;-66
2022/06/24 03:57:39;;;;;;;35.57;32.67;;;19.50;99.90;;;;;;5046611;28;20498;-66
2022/06/24 04:00:09;;;;;;;34.77;32.07;;;19.60;99.90;;;;;;5055797;28;20565;-67
2022/06/24 04:02:37;;;;;;;37.00;33.50;;;19.50;99.90;;;;;;5038102;28;20472;-67
2022/06/24 04:05:04;;;;;;;36.43;32.90;;;19.60;99.90;;;;;;5028688;28;20459;-68
2022/06/24 04:07:30;;;;;;;35.87;32.57;;;19.60;99.90;;;;;;5044658;28;20459;-67
2022/06/24 04:09:57;;;;;;;39.70;36.20;;;19.60;99.90;;;;;;5046023;28;21087;-67
2022/06/24 04:12:24;;;;;;;37.10;34.20;;;19.50;99.90;;;;;;5028535;28;20467;-67
2022/06/24 04:17:51;;;;;;;37.97;34.47;;;19.60;99.90;;;;;;5052800;28;20486;-67
2022/06/24 04:20:20;;;;;;;42.10;34.40;;;19.70;99.90;;;;;;5036764;28;20479;-67
2022/06/24 04:22:48;;;;;;;36.93;33.70;;;19.70;99.90;;;;;;5026724;28;21669;-67
2022/06/24 04:25:15;;;;;;;37.53;34.13;;;19.80;99.90;;;;;;5028007;28;20471;-66
2022/06/24 04:27:42;;;;;;;38.70;34.17;;;19.70;99.90;;;;;;5026441;28;22532;-69
2022/06/24 04:30:12;;;;;;;36.93;33.37;;;19.50;99.90;;;;;;5028039;28;20456;-67
2022/06/24 04:32:39;;;;;;;37.00;33.20;;;19.50;99.90;;;;;;5026146;28;20468;-68
2022/06/24 04:35:06;;;;;;;36.40;33.27;;;19.70;99.90;;;;;;5026507;28;20839;-67
2022/06/24 04:37:36;;;;;;;34.33;31.40;;;19.70;99.90;;;;;;5028286;28;21598;-66
2022/06/24 04:40:04;;;;;;;35.10;32.10;;;19.80;99.90;;;;;;5027805;28;20476;-67
2022/06/24 04:42:31;;;;;;;35.57;32.57;;;19.90;99.90;;;;;;5026702;28;20860;-67
2022/06/24 04:44:57;;;;;;;34.23;31.13;;;19.80;99.90;;;;;;5026608;28;20974;-67
2022/06/24 04:47:25;;;;;;;34.20;31.50;;;19.80;99.90;;;;;;5025763;28;20475;-66
2022/06/24 04:49:53;;;;;;;32.70;29.80;;;19.70;99.90;;;;;;5027818;28;20459;-68
2022/06/24 04:52:19;;;;;;;34.00;30.77;;;19.70;99.90;;;;;;5027970;28;20521;-66
2022/06/24 04:54:47;;;;;;;33.33;30.30;;;19.70;99.90;;;;;;5027167;28;20463;-67
2022/06/24 04:57:14;;;;;;;32.80;29.97;;;19.70;99.90;;;;;;5027856;28;21005;-66
2022/06/24 04:59:41;;;;;;;32.53;29.47;;;19.80;99.90;;;;;;5027212;28;20456;-66
2022/06/24 05:02:08;;;;;;;31.00;28.30;;;19.90;99.90;;;;;;5025462;28;20507;-66
2022/06/24 05:04:37;;;;;;;30.00;27.30;;;19.90;99.90;;;;;;5027379;28;21013;-66
2022/06/24 05:07:04;;;;;;;30.07;27.47;;;19.80;99.90;;;;;;5031646;28;20506;-66
2022/06/24 05:09:31;;;;;;;27.80;25.17;;;19.80;99.90;;;;;;5030647;28;20513;-65
2022/06/24 05:11:58;;;;;;;28.87;25.67;;;19.90;99.90;;;;;;5032298;28;20459;-67
2022/06/24 05:14:26;;;;;;;27.77;25.07;;;19.80;99.90;;;;;;5030994;28;20791;-66
2022/06/24 05:16:53;;;;;;;35.27;25.93;;;19.90;99.90;;;;;;5031430;28;21397;-67
2022/06/24 05:19:20;;;;;;;28.30;25.30;;;19.90;99.90;;;;;;5029483;28;20471;-66
2022/06/24 05:21:49;;;;;;;23.40;21.40;;;19.70;99.90;;;;;;5030403;28;20984;-66
2022/06/24 05:24:16;;;;;;;24.20;22.10;;;19.90;99.90;;;;;;5031772;28;20474;-67
2022/06/24 05:26:43;;;;;;;24.37;21.90;;;19.90;99.90;;;;;;5032427;28;20995;-68
2022/06/24 05:29:10;;;;;;;29.17;25.43;;;20.10;99.90;;;;;;5030954;28;20471;-66
2022/06/24 05:31:37;;;;;;;25.70;22.90;;;20.10;99.90;;;;;;5031415;28;21375;-67
2022/06/24 05:34:04;;;;;;;26.03;23.30;;;20.00;99.90;;;;;;5028720;28;20470;-66
2022/06/24 05:36:30;;;;;;;24.53;22.00;;;20.00;99.90;;;;;;5030483;28;21021;-67
2022/06/24 05:39:01;;;;;;;26.73;20.40;;;20.00;99.90;;;;;;5031239;28;20452;-66
2022/06/24 05:41:28;;;;;;;27.30;24.50;;;20.10;99.90;;;;;;5032165;28;20578;-67
2022/06/24 05:43:55;;;;;;;27.50;23.97;;;20.10;99.90;;;;;;5031525;28;20475;-66
2022/06/24 05:46:23;;;;;;;37.83;30.80;;;20.00;99.90;;;;;;5030203;28;20582;-66
2022/06/24 05:48:49;;;;;;;28.17;25.57;;;20.10;99.90;;;;;;5030094;28;20472;-68
2022/06/24 05:51:17;;;;;;;33.27;29.20;;;20.00;99.90;;;;;;5029399;28;20459;-65
2022/06/24 05:56:31;;;;;;;28.90;20.73;;;20.10;99.90;;;;;;5030668;28;20538;-67
2022/06/24 05:58:59;;;;;;;23.10;20.73;;;20.10;99.90;;;;;;5030502;28;20460;-67
2022/06/24 06:01:26;;;;;;;26.67;23.63;;;20.10;99.90;;;;;;5035363;28;21030;-67
2022/06/24 06:03:53;;;;;;;30.93;25.13;;;20.20;99.90;;;;;;5049886;28;21442;-67
2022/06/24 06:06:21;;;;;;;33.83;23.33;;;20.10;99.90;;;;;;5028224;28;20466;-68
2022/06/24 06:08:47;;;;;;;22.37;20.07;;;20.10;99.90;;;;;;5028221;28;21279;-67
2022/06/24 06:11:17;;;;;;;26.30;19.07;;;20.10;99.90;;;;;;5028551;28;20766;-67
2022/06/24 06:13:46;;;;;;;23.73;18.43;;;20.10;99.90;;;;;;5028600;28;20478;-66
2022/06/24 06:16:14;;;;;;;18.43;16.57;;;20.10;99.90;;;;;;5025596;28;20549;-66
2022/06/24 06:18:41;;;;;;;25.13;17.20;;;20.10;99.90;;;;;;5028211;28;20460;-65
2022/06/24 06:21:09;;;;;;;18.93;17.03;;;20.10;99.90;;;;;;5028504;28;20471;-66
2022/06/24 06:23:37;;;;;;;19.20;17.13;;;20.00;99.90;;;;;;5026824;28;20508;-67
2022/06/24 06:26:08;;;;;;;19.10;17.10;;;20.00;99.90;;;;;;5029005;28;21410;-65
2022/06/24 06:28:35;;;;;;;36.67;25.33;;;19.90;99.90;;;;;;5027671;28;21080;-66
2022/06/24 06:31:04;;;;;;;43.87;30.07;;;20.00;99.90;;;;;;5028071;28;20464;-67
2022/06/24 06:33:31;;;;;;;78.63;29.10;;;19.70;99.90;;;;;;5027690;28;20468;-66
2022/06/24 06:36:03;;;;;;;51.50;28.30;;;19.70;99.90;;;;;;5028598;28;20448;-67
2022/06/24 06:38:30;;;;;;;35.23;28.40;;;19.70;99.90;;;;;;5027638;28;20857;-67
2022/06/24 06:40:58;;;;;;;40.13;27.60;;;19.60;99.90;;;;;;5042563;28;20463;-66
2022/06/24 06:43:25;;;;;;;33.63;30.30;;;19.60;99.90;;;;;;5051634;28;21023;-66
2022/06/24 06:45:52;;;;;;;29.60;27.00;;;19.60;99.90;;;;;;5037774;28;20467;-66
2022/06/24 06:48:20;;;;;;;29.57;27.27;;;19.60;99.90;;;;;;5028447;28;20463;-65
2022/06/24 06:50:48;;;;;;;29.53;26.70;;;19.60;99.90;;;;;;5027849;28;20483;-66
2022/06/24 06:53:15;;;;;;;34.33;27.50;;;19.50;99.90;;;;;;5026955;28;20476;-68
2022/06/24 06:55:41;;;;;;;81.60;28.17;;;19.50;99.90;;;;;;5027040;28;20472;-67
2022/06/24 06:58:08;;;;;;;64.70;25.13;;;19.60;99.90;;;;;;5027644;28;20491;-66
2022/06/24 07:00:35;;;;;;;27.43;24.30;;;19.60;99.90;;;;;;5028122;28;20830;-66
2022/06/24 07:03:02;;;;;;;26.90;24.40;;;19.40;99.90;;;;;;5027960;28;21100;-66
2022/06/24 07:05:31;;;;;;;26.30;23.90;;;19.30;99.90;;;;;;5028020;28;20836;-66
2022/06/24 07:07:57;;;;;;;25.67;23.17;;;19.30;99.90;;;;;;5028417;28;20502;-67
2022/06/24 07:10:24;;;;;;;27.67;25.03;;;19.50;99.90;;;;;;5027845;28;20492;-67
2022/06/24 07:12:51;;;;;;;27.10;24.57;;;19.50;99.90;;;;;;5027372;28;20669;-67
2022/06/24 07:15:18;;;;;;;25.97;23.67;;;19.50;99.90;;;;;;5028254;28;21090;-67
2022/06/24 07:17:45;;;;;;;28.50;25.03;;;19.50;99.90;;;;;;5028502;28;20487;-67
2022/06/24 07:20:12;;;;;;;35.60;23.73;;;19.40;99.90;;;;;;5027896;28;20468;-67
2022/06/24 07:22:41;;;;;;;22.30;20.17;;;19.50;99.90;;;;;;5027221;28;20482;-66
2022/06/24 07:25:09;;;;;;;27.27;20.07;;;19.40;99.90;;;;;;5028192;28;20921;-67
2022/06/24 07:27:35;;;;;;;22.07;19.60;;;19.40;99.90;;;;;;5027839;28;20463;-67
2022/06/24 07:30:03;;;;;;;20.83;18.70;;;19.30;99.90;;;;;;5026249;28;20451;-67
2022/06/24 07:32:30;;;;;;;18.90;17.40;;;19.40;99.90;;;;;;5028270;28;20464;-66
2022/06/24 07:34:57;;;;;;;20.47;18.67;;;19.50;99.90;;;;;;5027855;28;21203;-66
2022/06/24 07:37:24;;;;;;;20.17;18.37;;;19.60;99.90;;;;;;5028538;28;20861;-67
2022/06/24 07:39:53;;;;;;;19.40;17.83;;;19.70;99.90;;;;;;5026889;28;20460;-67
2022/06/24 07:42:19;;;;;;;19.43;17.87;;;19.80;99.90;;;;;;5027052;28;20470;-68
2022/06/24 07:44:47;;;;;;;19.87;18.37;;;19.90;99.90;;;;;;5025434;28;20467;-65
2022/06/24 07:47:14;;;;;;;18.40;17.00;;;20.00;99.90;;;;;;5026809;28;20467;-65
2022/06/24 07:49:42;;;;;;;18.33;17.03;;;20.10;99.90;;;;;;5026879;28;20510;-66
2022/06/24 07:52:09;;;;;;;16.70;15.40;;;20.20;99.90;;;;;;5027222;28;20634;-67
2022/06/24 07:54:36;;;;;;;18.70;16.73;;;20.30;99.90;;;;;;5027779;28;20505;-66
2022/06/24 07:57:04;;;;;;;15.77;14.53;;;20.30;99.90;;;;;;5028122;28;20501;-66
2022/06/24 07:59:33;;;;;;;13.67;12.77;;;20.50;99.90;;;;;;5026750;28;20471;-66
2022/06/24 08:02:01;;;;;;;14.33;11.67;;;20.60;99.90;;;;;;5027400;28;20918;-66
2022/06/24 08:04:29;;;;;;;12.57;11.50;;;20.50;99.90;;;;;;5027708;28;21079;-68
2022/06/24 08:06:56;;;;;;;11.33;10.53;;;20.40;99.90;;;;;;5027403;28;20476;-65
2022/06/24 08:09:26;;;;;;;14.03;12.63;;;20.40;99.90;;;;;;5026403;28;20536;-66
2022/06/24 08:11:53;;;;;;;11.20;10.40;;;20.60;99.90;;;;;;5026790;28;21476;-68
2022/06/24 08:14:22;;;;;;;11.87;10.73;;;20.70;99.90;;;;;;5026602;28;20489;-66
2022/06/24 08:16:48;;;;;;;10.80;9.90;;;20.90;99.90;;;;;;5027674;28;20468;-67
2022/06/24 08:19:16;;;;;;;10.90;10.10;;;20.90;99.90;;;;;;5026666;28;20476;-66
2022/06/24 08:21:43;;;;;;;11.03;10.13;;;21.10;99.90;;;;;;5027297;28;20803;-65
2022/06/24 08:24:10;;;;;;;11.00;10.30;;;21.10;99.90;;;;;;5026412;28;21324;-66
2022/06/24 08:26:37;;;;;;;11.77;10.70;;;21.20;99.90;;;;;;5026808;28;20463;-65
2022/06/24 08:29:04;;;;;;;12.13;11.13;;;21.20;99.90;;;;;;5026912;28;20471;-66
2022/06/24 08:31:32;;;;;;;12.60;11.60;;;21.20;99.90;;;;;;5025694;28;20829;-66
2022/06/24 08:33:59;;;;;;;14.23;12.80;;;21.10;99.90;;;;;;5027415;28;20448;-67
2022/06/24 08:36:27;;;;;;;14.40;13.30;;;21.10;99.90;;;;;;5026737;28;20693;-66
2022/06/24 08:38:54;;;;;;;13.77;12.67;;;21.00;99.90;;;;;;5027066;28;20499;-66
2022/06/24 08:41:23;;;;;;;14.93;13.83;;;21.00;99.90;;;;;;5028639;28;20491;-67
2022/06/24 08:43:52;;;;;;;14.73;13.63;;;21.00;99.90;;;;;;5052312;28;20520;-67
2022/06/24 08:46:19;;;;;;;15.27;14.07;;;21.00;99.90;;;;;;5047986;28;20504;-66
2022/06/24 08:48:48;;;;;;;16.20;13.20;;;21.10;99.90;;;;;;5029985;28;20974;-65
2022/06/24 08:51:16;;;;;;;15.10;13.83;;;21.20;99.90;;;;;;5029769;28;20476;-67
2022/06/24 08:53:45;;;;;;;16.10;14.70;;;21.10;99.90;;;;;;5027089;28;20973;-66
2022/06/24 08:56:11;;;;;;;15.23;14.03;;;21.30;99.90;;;;;;5030033;28;20830;-65
2022/06/24 08:58:40;;;;;;;14.00;13.00;;;21.60;99.90;;;;;;5027728;28;20532;-68
2022/06/24 09:01:07;;;;;;;16.53;15.10;;;21.90;99.90;;;;;;5029917;28;20554;-66
2022/06/24 09:03:34;;;;;;;15.27;14.10;;;22.20;99.90;;;;;;5031300;28;20471;-67
2022/06/24 09:06:12;;;;;;;14.73;13.50;;;22.80;99.90;;;;;;5030487;28;20565;-65
2022/06/24 09:08:40;;;;;;;14.93;13.63;;;23.10;99.90;;;;;;5030020;28;20735;-67
2022/06/24 09:11:10;;;;;;;13.40;12.33;;;23.60;99.90;;;;;;5029613;28;20985;-67
2022/06/24 09:13:45;;;;;;;13.20;12.30;;;24.30;99.90;;;;;;5030727;28;20467;-66
2022/06/24 09:16:13;;;;;;;15.27;14.10;;;24.80;99.90;;;;;;5029540;28;21137;-67
2022/06/24 09:18:40;;;;;;;15.33;14.13;;;25.10;99.90;;;;;;5029336;28;20860;-66
2022/06/24 09:21:08;;;;;;;14.77;13.77;;;25.70;99.90;;;;;;5051585;28;20458;-66
2022/06/24 09:23:54;;;;;;;16.53;15.53;;;26.00;99.90;;;;;;5057252;28;20491;-68
2022/06/24 09:26:33;;;;;;;16.50;15.50;;;25.80;99.90;;;;;;5027224;28;20470;-66
2022/06/24 09:29:01;;;;;;;18.03;16.57;;;26.10;99.90;;;;;;5015008;28;20475;-68
2022/06/24 09:31:29;;;;;;;16.93;15.93;;;26.70;99.90;;;;;;5019740;28;20541;-67
2022/06/24 09:33:57;;;;;;;20.50;18.53;;;27.60;99.90;;;;;;5025455;28;20480;-68
2022/06/24 09:36:26;;;;;;;18.03;16.90;;;28.40;99.90;;;;;;5026357;28;20601;-68
2022/06/24 09:38:55;;;;;;;18.63;17.50;;;28.60;99.90;;;;;;5024130;28;20487;-67
2022/06/24 09:41:22;;;;;;;18.93;17.70;;;28.20;99.90;;;;;;5022546;28;20468;-67
2022/06/24 09:43:49;;;;;;;19.70;18.30;;;27.90;99.90;;;;;;5024404;28;20464;-68
2022/06/24 09:46:19;;;;;;;19.00;17.90;;;27.00;99.90;;;;;;5024409;28;20730;-68
2022/06/24 09:48:45;;;;;;;19.00;17.77;;;27.00;99.90;;;;;;5023993;28;20560;-68
2022/06/24 09:51:12;;;;;;;20.60;19.30;;;27.10;99.90;;;;;;5024984;28;20459;-68
2022/06/24 09:53:41;;;;;;;19.50;18.30;;;28.00;99.90;;;;;;5024253;28;21099;-69
2022/06/24 09:56:10;;;;;;;20.10;18.90;;;29.20;99.90;;;;;;5024889;28;20451;-67
2022/06/24 09:58:37;;;;;;;20.50;19.10;;;30.00;99.90;;;;;;5027375;28;21057;-66
2022/06/24 10:01:04;;;;;;;20.20;18.90;;;29.60;99.90;;;;;;5025677;28;22202;-67
2022/06/24 10:03:33;;;;;;;20.37;18.87;;;28.40;99.90;;;;;;5025223;28;20479;-68
2022/06/24 10:06:02;;;;;;;19.33;18.13;;;28.90;99.90;;;;;;5025877;28;20529;-67
2022/06/24 10:08:33;;;;;;;18.40;17.20;;;29.30;99.90;;;;;;5022521;28;22283;-67
2022/06/24 10:11:06;;;;;;;19.63;18.10;;;28.80;99.90;;;;;;5023615;28;20989;-66
2022/06/24 10:13:34;;;;;;;19.20;17.87;;;28.80;99.90;;;;;;5050722;28;20471;-65
2022/06/24 10:16:04;;;;;;;19.87;18.67;;;28.90;99.90;;;;;;5032643;28;20842;-67
2022/06/24 10:18:35;;;;;;;19.53;18.13;;;29.70;99.90;;;;;;5023284;28;20520;-68
2022/06/24 10:21:04;;;;;;;19.17;17.87;;;29.10;99.90;;;;;;5022934;28;20573;-68
2022/06/24 10:23:40;;;;;;;19.57;18.27;;;28.60;99.90;;;;;;5021560;28;20761;-68
2022/06/24 10:26:12;;;;;;;18.13;17.13;;;27.90;99.90;;;;;;5024228;28;20462;-67
2022/06/24 10:29:12;;;;;;;18.07;16.90;;;27.70;99.90;;;;;;5022554;28;20460;-66
2022/06/24 10:32:00;;;;;;;18.23;17.23;;;27.90;99.90;;;;;;5014490;28;20890;-68
2022/06/24 10:34:29;;;;;;;18.17;16.83;;;28.70;99.90;;;;;;5023662;28;20466;-66
2022/06/24 10:37:00;;;;;;;18.07;16.90;;;28.60;99.90;;;;;;5023699;28;21088;-69
2022/06/24 10:39:28;;;;;;;17.90;16.90;;;29.10;99.90;;;;;;5023128;28;20491;-68
2022/06/24 10:42:01;;;;;;;18.10;17.07;;;29.50;99.90;;;;;;5023322;28;20468;-68
2022/06/24 10:44:29;;;;;;;18.73;17.63;;;30.10;99.90;;;;;;5023837;28;20496;-69
2022/06/24 10:47:27;;;;;;;17.80;16.90;;;30.00;99.90;;;;;;5022069;28;21078;-69
2022/06/24 10:50:13;;;;;;;18.00;16.80;;;29.90;99.90;;;;;;5022198;28;20976;-70
2022/06/24 10:52:45;;;;;;;19.27;17.97;;;30.80;99.90;;;;;;5023585;28;20753;-69
2022/06/24 10:55:37;;;;;;;19.93;18.67;;;30.80;99.90;;;;;;5022137;28;20583;-70
2022/06/24 10:58:07;;;;;;;18.70;17.60;;;29.70;99.90;;;;;;5021675;28;21086;-69
2022/06/24 11:00:50;;;;;;;18.97;17.83;;;29.30;99.90;;;;;;5021184;28;20478;-68
2022/06/24 11:03:22;;;;;;;17.20;16.40;;;28.60;99.90;;;;;;5021234;28;20783;-69
2022/06/24 11:05:51;;;;;;;17.90;17.00;;;28.20;99.90;;;;;;5022265;28;21092;-68
2022/06/24 11:08:19;;;;;;;18.20;17.10;;;28.00;99.90;;;;;;5042737;28;20559;-68
2022/06/24 11:10:47;;;;;;;17.33;16.43;;;27.50;99.90;;;;;;5047638;28;20554;-68
2022/06/24 11:13:17;;;;;;;17.83;16.93;;;27.00;99.90;;;;;;5046014;28;20472;-68
2022/06/24 11:15:46;;;;;;;17.57;16.47;;;26.90;99.90;;;;;;5035668;28;20462;-68
2022/06/24 11:18:15;;;;;;;18.00;16.70;;;26.60;99.90;;;;;;5023033;28;20525;-67
2022/06/24 11:20:44;;;;;;;17.40;16.40;;;26.50;99.90;;;;;;5024818;28;20464;-68
2022/06/24 11:23:12;;;;;;;16.87;15.97;;;26.50;99.90;;;;;;5022410;28;21745;-69
2022/06/24 11:25:41;;;;;;;17.53;16.57;;;26.50;99.90;;;;;;5022970;28;20456;-68
2022/06/24 11:28:19;;;;;;;17.57;16.67;;;26.20;99.90;;;;;;5022694;28;20472;-68
2022/06/24 11:30:46;;;;;;;17.00;16.00;;;26.10;99.90;;;;;;5019356;28;21060;-67
2022/06/24 11:33:13;;;;;;;16.93;15.93;;;26.10;99.90;;;;;;5040730;28;20468;-68
2022/06/24 11:35:40;;;;;;;17.37;16.30;;;26.70;99.90;;;;;;5059454;28;20466;-68
2022/06/24 11:38:08;;;;;;;18.27;17.27;;;27.70;99.90;;;;;;5038883;28;20467;-69
2022/06/24 11:40:36;;;;;;;18.70;17.40;;;27.80;99.90;;;;;;5027106;28;20468;-68
2022/06/24 11:43:09;;;;;;;19.07;17.97;;;28.30;99.90;;;;;;5027687;28;20456;-68
2022/06/24 11:45:38;;;;;;;18.83;17.80;;;29.00;99.90;;;;;;5024628;28;20456;-68
2022/06/24 11:48:06;;;;;;;18.40;17.30;;;30.00;99.90;;;;;;5021858;28;20460;-69
2022/06/24 11:50:34;;;;;;;19.20;18.13;;;30.70;99.90;;;;;;5021483;28;20470;-68
2022/06/24 11:53:02;;;;;;;18.70;17.53;;;31.80;99.90;;;;;;5023946;28;20506;-67
2022/06/24 11:55:30;;;;;;;18.67;17.77;;;32.40;99.90;;;;;;5024332;28;20462;-67
2022/06/24 11:57:59;;;;;;;18.00;17.00;;;32.70;97.70;;;;;;5023881;28;20479;-69
2022/06/24 12:00:27;;;;;;;18.70;17.30;;;32.70;96.30;;;;;;5022665;28;20471;-68
2022/06/24 12:02:58;;;;;;;18.23;17.23;;;32.20;97.00;;;;;;5042514;28;20780;-66
2022/06/24 12:05:29;;;;;;;18.20;17.20;;;33.00;96.40;;;;;;5052168;28;20471;-68
2022/06/24 12:07:57;;;;;;;19.70;17.80;;;34.00;94.00;;;;;;5041459;28;20846;-68
2022/06/24 12:10:24;;;;;;;18.03;17.10;;;33.60;92.20;;;;;;5022445;28;20487;-68
2022/06/24 12:12:59;;;;;;;18.70;17.60;;;34.00;91.30;;;;;;5024410;28;20463;-69
2022/06/24 12:15:28;;;;;;;17.30;16.30;;;34.80;90.50;;;;;;5023167;28;20459;-68
2022/06/24 12:17:56;;;;;;;17.33;16.50;;;35.00;88.20;;;;;;5023456;28;20483;-69
2022/06/24 12:20:25;;;;;;;17.80;16.80;;;34.90;84.00;;;;;;5023596;28;20491;-69
2022/06/24 12:23:15;;;;;;;18.13;16.67;;;34.00;83.30;;;;;;5024720;28;20541;-69
2022/06/24 12:25:43;;;;;;;17.10;16.10;;;33.70;84.40;;;;;;5023460;28;20509;-70
2022/06/24 12:28:17;;;;;;;17.07;15.87;;;33.30;81.30;;;;;;5023997;28;20486;-69
2022/06/24 12:30:54;;;;;;;17.30;16.30;;;32.70;81.30;;;;;;5023331;28;20466;-69
2022/06/24 12:33:24;;;;;;;18.00;16.90;;;33.20;80.70;;;;;;5022826;28;21289;-68
2022/06/24 12:36:10;;;;;;;17.17;16.37;;;33.70;81.50;;;;;;5023559;28;20784;-69
2022/06/24 12:38:42;;;;;;;17.80;16.70;;;33.70;79.80;;;;;;5023995;28;20604;-68
2022/06/24 12:41:11;;;;;;;17.07;16.20;;;34.50;79.20;;;;;;5022604;28;20467;-68
2022/06/24 12:43:50;;;;;;;17.10;16.10;;;34.60;77.90;;;;;;5022683;28;21102;-69
2022/06/24 12:46:17;;;;;;;17.03;15.93;;;34.40;76.30;;;;;;5023714;28;20495;-69